sensor_id;sensor_type;location;lat;lon;timestamp;pressure;altitude;pressure_sealevel;temperature;humidity
59190;BME280;50749;51.636;4.948;2023-11-21T00:01:02;101148.41;;;16.29;60.07
59190;BME280;50749;51.636;4.948;2023-11-21T00:03:39;101143.34;;;16.31;60.09
59190;BME280;50749;51.636;4.948;2023-11-21T00:06:05;101143.69;;;16.30;59.87
59190;BME280;50749;51.636;4.948;2023-11-21T00:08:34;101139.31;;;16.29;59.37
59190;BME280;50749;51.636;4.948;2023-11-21T00:11:00;101144.25;;;16.23;59.47
59190;BME280;50749;51.636;4.948;2023-11-21T00:13:26;101148.97;;;16.23;59.86
59190;BME280;50749;51.636;4.948;2023-11-21T00:15:52;101154.47;;;16.23;59.66
59190;BME280;50749;51.636;4.948;2023-11-21T00:18:18;101151.47;;;16.15;59.35
59190;BME280;50749;51.636;4.948;2023-11-21T00:20:45;101150.72;;;16.06;59.28
59190;BME280;50749;51.636;4.948;2023-11-21T00:23:11;101156.97;;;15.94;58.80
59190;BME280;50749;51.636;4.948;2023-11-21T00:25:37;101153.44;;;15.94;59.43
59190;BME280;50749;51.636;4.948;2023-11-21T00:28:03;101154.75;;;15.88;58.93
59190;BME280;50749;51.636;4.948;2023-11-21T00:30:29;101155.31;;;15.81;58.84
59190;BME280;50749;51.636;4.948;2023-11-21T00:32:55;101157.13;;;15.77;59.39
59190;BME280;50749;51.636;4.948;2023-11-21T00:35:21;101154.84;;;15.79;59.66
59190;BME280;50749;51.636;4.948;2023-11-21T00:37:47;101154.19;;;15.73;59.37
59190;BME280;50749;51.636;4.948;2023-11-21T00:40:15;101158.53;;;15.83;59.78
59190;BME280;50749;51.636;4.948;2023-11-21T00:42:44;101154.97;;;15.83;59.25
59190;BME280;50749;51.636;4.948;2023-11-21T00:45:10;101149.78;;;15.81;59.09
59190;BME280;50749;51.636;4.948;2023-11-21T00:47:36;101152.91;;;15.71;59.54
59190;BME280;50749;51.636;4.948;2023-11-21T00:50:03;101153.38;;;15.73;59.36
59190;BME280;50749;51.636;4.948;2023-11-21T00:52:31;101158.75;;;15.69;59.64
59190;BME280;50749;51.636;4.948;2023-11-21T00:54:57;101162.81;;;15.72;59.70
59190;BME280;50749;51.636;4.948;2023-11-21T00:57:24;101156.66;;;15.66;59.16
59190;BME280;50749;51.636;4.948;2023-11-21T00:59:50;101160.41;;;15.61;59.25
59190;BME280;50749;51.636;4.948;2023-11-21T01:02:16;101169.03;;;15.60;59.14
59190;BME280;50749;51.636;4.948;2023-11-21T01:04:41;101167.28;;;15.55;58.99
59190;BME280;50749;51.636;4.948;2023-11-21T01:07:07;101186.78;;;15.50;59.09
59190;BME280;50749;51.636;4.948;2023-11-21T01:09:33;101177.53;;;15.46;59.30
59190;BME280;50749;51.636;4.948;2023-11-21T01:11:59;101184.47;;;15.52;59.86
59190;BME280;50749;51.636;4.948;2023-11-21T01:14:25;101183.16;;;15.58;59.97
59190;BME280;50749;51.636;4.948;2023-11-21T01:16:52;101185.56;;;15.60;59.55
59190;BME280;50749;51.636;4.948;2023-11-21T01:19:18;101188.88;;;15.53;59.55
59190;BME280;50749;51.636;4.948;2023-11-21T01:21:44;101184.47;;;15.52;59.42
59190;BME280;50749;51.636;4.948;2023-11-21T01:24:10;101200.50;;;15.59;59.54
59190;BME280;50749;51.636;4.948;2023-11-21T01:26:36;101193.69;;;15.56;58.99
59190;BME280;50749;51.636;4.948;2023-11-21T01:29:02;101195.88;;;15.42;58.95
59190;BME280;50749;51.636;4.948;2023-11-21T01:31:27;101195.44;;;15.31;59.50
59190;BME280;50749;51.636;4.948;2023-11-21T01:33:55;101200.81;;;15.28;59.47
59190;BME280;50749;51.636;4.948;2023-11-21T01:36:21;101198.06;;;15.28;59.75
59190;BME280;50749;51.636;4.948;2023-11-21T01:38:47;101197.72;;;15.29;59.63
59190;BME280;50749;51.636;4.948;2023-11-21T01:41:16;101204.34;;;15.37;60.16
59190;BME280;50749;51.636;4.948;2023-11-21T01:43:42;101212.41;;;15.42;60.06
59190;BME280;50749;51.636;4.948;2023-11-21T01:46:08;101214.50;;;15.45;59.86
59190;BME280;50749;51.636;4.948;2023-11-21T01:48:34;101217.06;;;15.50;59.93
59190;BME280;50749;51.636;4.948;2023-11-21T01:51:01;101214.31;;;15.50;59.52
59190;BME280;50749;51.636;4.948;2023-11-21T01:53:28;101219.06;;;15.41;59.25
59190;BME280;50749;51.636;4.948;2023-11-21T01:55:55;101207.94;;;15.29;59.28
59190;BME280;50749;51.636;4.948;2023-11-21T01:58:21;101218.63;;;15.30;59.77
59190;BME280;50749;51.636;4.948;2023-11-21T02:00:47;101227.84;;;15.34;59.65
59190;BME280;50749;51.636;4.948;2023-11-21T02:03:16;101225.72;;;15.40;59.97
59190;BME280;50749;51.636;4.948;2023-11-21T02:05:42;101231.56;;;15.30;59.32
59190;BME280;50749;51.636;4.948;2023-11-21T02:08:08;101231.78;;;15.16;59.09
59190;BME280;50749;51.636;4.948;2023-11-21T02:10:35;101234.22;;;15.17;59.78
59190;BME280;50749;51.636;4.948;2023-11-21T02:13:03;101239.41;;;15.19;59.56
59190;BME280;50749;51.636;4.948;2023-11-21T02:15:29;101239.06;;;15.20;59.58
59190;BME280;50749;51.636;4.948;2023-11-21T02:17:55;101245.72;;;15.19;59.94
59190;BME280;50749;51.636;4.948;2023-11-21T02:20:21;101239.44;;;15.10;59.36
59190;BME280;50749;51.636;4.948;2023-11-21T02:22:55;101244.75;;;15.15;60.10
59190;BME280;50749;51.636;4.948;2023-11-21T02:25:28;101251.72;;;15.21;60.10
59190;BME280;50749;51.636;4.948;2023-11-21T02:27:55;101248.28;;;15.24;59.87
59190;BME280;50749;51.636;4.948;2023-11-21T02:30:22;101255.41;;;15.26;59.64
59190;BME280;50749;51.636;4.948;2023-11-21T02:32:48;101249.44;;;15.23;59.41
59190;BME280;50749;51.636;4.948;2023-11-21T02:35:14;101253.31;;;15.22;59.81
59190;BME280;50749;51.636;4.948;2023-11-21T02:37:41;101244.75;;;15.15;59.48
59190;BME280;50749;51.636;4.948;2023-11-21T02:40:10;101244.59;;;15.20;60.24
59190;BME280;50749;51.636;4.948;2023-11-21T02:42:39;101250.88;;;15.21;59.83
59190;BME280;50749;51.636;4.948;2023-11-21T02:45:06;101249.47;;;15.15;59.59
59190;BME280;50749;51.636;4.948;2023-11-21T02:47:32;101238.78;;;15.13;59.54
59190;BME280;50749;51.636;4.948;2023-11-21T02:49:59;101242.66;;;15.12;60.06
59190;BME280;50749;51.636;4.948;2023-11-21T02:52:25;101239.44;;;15.10;60.11
59190;BME280;50749;51.636;4.948;2023-11-21T02:54:50;101244.75;;;15.15;60.18
59190;BME280;50749;51.636;4.948;2023-11-21T02:57:17;101243.63;;;15.16;59.95
59190;BME280;50749;51.636;4.948;2023-11-21T02:59:42;101237.94;;;15.21;60.27
59190;BME280;50749;51.636;4.948;2023-11-21T03:02:08;101245.53;;;15.24;59.85
59190;BME280;50749;51.636;4.948;2023-11-21T03:04:34;101249.25;;;15.29;60.01
59190;BME280;50749;51.636;4.948;2023-11-21T03:07:00;101257.84;;;15.27;59.90
59190;BME280;50749;51.636;4.948;2023-11-21T03:09:26;101257.06;;;15.18;59.35
59190;BME280;50749;51.636;4.948;2023-11-21T03:11:55;101259.53;;;15.02;59.83
59190;BME280;50749;51.636;4.948;2023-11-21T03:14:21;101262.91;;;15.08;60.16
59190;BME280;50749;51.636;4.948;2023-11-21T03:16:48;101261.78;;;15.09;60.01
59190;BME280;50749;51.636;4.948;2023-11-21T03:19:14;101255.50;;;15.08;59.96
59190;BME280;50749;51.636;4.948;2023-11-21T03:21:40;101260.34;;;15.02;59.95
59190;BME280;50749;51.636;4.948;2023-11-21T03:24:06;101260.50;;;15.06;60.21
59190;BME280;50749;51.636;4.948;2023-11-21T03:26:33;101262.91;;;15.08;60.10
59190;BME280;50749;51.636;4.948;2023-11-21T03:28:59;101263.75;;;15.08;60.19
59190;BME280;50749;51.636;4.948;2023-11-21T03:31:25;101262.91;;;15.08;59.63
59190;BME280;50749;51.636;4.948;2023-11-21T03:33:50;101270.38;;;15.07;60.25
59190;BME280;50749;51.636;4.948;2023-11-21T03:36:16;101272.34;;;15.07;59.94
59190;BME280;50749;51.636;4.948;2023-11-21T03:38:43;101272.50;;;15.01;59.96
59190;BME280;50749;51.636;4.948;2023-11-21T03:41:09;101270.09;;;14.91;59.94
59190;BME280;50749;51.636;4.948;2023-11-21T03:43:37;101273.47;;;14.97;60.13
59190;BME280;50749;51.636;4.948;2023-11-21T03:46:03;101268.31;;;14.95;60.19
59190;BME280;50749;51.636;4.948;2023-11-21T03:48:29;101278.84;;;14.93;59.88
59190;BME280;50749;51.636;4.948;2023-11-21T03:50:55;101273.19;;;14.90;60.13
59190;BME280;50749;51.636;4.948;2023-11-21T03:53:21;101264.13;;;14.80;59.96
59190;BME280;50749;51.636;4.948;2023-11-21T03:55:47;101267.53;;;14.60;60.13
59190;BME280;50749;51.636;4.948;2023-11-21T03:58:12;101269.31;;;14.73;61.02
59190;BME280;50749;51.636;4.948;2023-11-21T04:00:39;101280.47;;;14.77;60.10
59190;BME280;50749;51.636;4.948;2023-11-21T04:03:04;101278.19;;;14.79;60.81
59190;BME280;50749;51.636;4.948;2023-11-21T04:05:30;101285.78;;;14.99;60.87
59190;BME280;50749;51.636;4.948;2023-11-21T04:07:56;101296.47;;;15.10;60.89
59190;BME280;50749;51.636;4.948;2023-11-21T04:10:22;101298.88;;;15.20;60.51
59190;BME280;50749;51.636;4.948;2023-11-21T04:12:48;101305.66;;;15.22;60.00
59190;BME280;50749;51.636;4.948;2023-11-21T04:15:14;101301.44;;;15.25;60.39
59190;BME280;50749;51.636;4.948;2023-11-21T04:17:40;101303.88;;;15.27;60.14
59190;BME280;50749;51.636;4.948;2023-11-21T04:20:07;101310.47;;;15.34;59.89
59190;BME280;50749;51.636;4.948;2023-11-21T04:22:41;101316.28;;;15.41;59.80
59190;BME280;50749;51.636;4.948;2023-11-21T04:25:10;101315.78;;;15.48;59.90
59190;BME280;50749;51.636;4.948;2023-11-21T04:27:38;101324.69;;;15.54;59.82
59190;BME280;50749;51.636;4.948;2023-11-21T04:30:04;101326.47;;;15.58;59.73
59190;BME280;50749;51.636;4.948;2023-11-21T04:32:30;101329.84;;;15.64;59.84
59190;BME280;50749;51.636;4.948;2023-11-21T04:34:56;101329.97;;;15.68;60.04
59190;BME280;50749;51.636;4.948;2023-11-21T04:37:22;101323.94;;;15.74;60.10
59190;BME280;50749;51.636;4.948;2023-11-21T04:39:48;101337.59;;;15.79;60.50
59190;BME280;50749;51.636;4.948;2023-11-21T04:42:14;101349.22;;;15.85;60.69
59190;BME280;50749;51.636;4.948;2023-11-21T04:44:40;101345.81;;;15.88;60.81
59190;BME280;50749;51.636;4.948;2023-11-21T04:47:06;101354.72;;;15.94;60.98
59190;BME280;50749;51.636;4.948;2023-11-21T04:49:33;101351.63;;;15.95;61.09
59190;BME280;50749;51.636;4.948;2023-11-21T04:51:59;101353.69;;;15.98;60.84
59190;BME280;50749;51.636;4.948;2023-11-21T04:54:25;101355.47;;;16.03;61.20
59190;BME280;50749;51.636;4.948;2023-11-21T04:56:51;101351.25;;;16.06;60.99
59190;BME280;50749;51.636;4.948;2023-11-21T04:59:17;101355.75;;;16.10;61.34
59190;BME280;50749;51.636;4.948;2023-11-21T05:01:43;101341.97;;;16.10;61.15
59190;BME280;50749;51.636;4.948;2023-11-21T05:04:08;101354.44;;;16.16;61.41
59190;BME280;50749;51.636;4.948;2023-11-21T05:06:34;101351.00;;;16.20;61.53
59190;BME280;50749;51.636;4.948;2023-11-21T05:09:00;101349.03;;;16.20;61.65
59190;BME280;50749;51.636;4.948;2023-11-21T05:11:27;101351.59;;;16.25;61.18
59190;BME280;50749;51.636;4.948;2023-11-21T05:13:53;101359.22;;;16.28;61.23
59190;BME280;50749;51.636;4.948;2023-11-21T05:16:21;101365.72;;;16.32;60.97
59190;BME280;50749;51.636;4.948;2023-11-21T05:18:48;101358.03;;;16.38;61.39
59190;BME280;50749;51.636;4.948;2023-11-21T05:21:15;101365.31;;;16.43;60.97
59190;BME280;50749;51.636;4.948;2023-11-21T05:23:41;101371.31;;;16.45;61.12
59190;BME280;50749;51.636;4.948;2023-11-21T05:26:07;101381.03;;;16.42;60.88
59190;BME280;50749;51.636;4.948;2023-11-21T05:28:33;101384.28;;;16.44;60.97
59190;BME280;50749;51.636;4.948;2023-11-21T05:30:58;101378.44;;;16.46;61.53
59190;BME280;50749;51.636;4.948;2023-11-21T05:33:25;101382.13;;;16.50;61.72
59190;BME280;50749;51.636;4.948;2023-11-21T05:35:50;101385.38;;;16.52;62.19
59190;BME280;50749;51.636;4.948;2023-11-21T05:38:16;101392.97;;;16.55;61.96
59190;BME280;50749;51.636;4.948;2023-11-21T05:40:42;101396.22;;;16.57;62.19
59190;BME280;50749;51.636;4.948;2023-11-21T05:43:09;101398.63;;;16.59;62.17
59190;BME280;50749;51.636;4.948;2023-11-21T05:45:35;101399.94;;;16.61;62.19
59190;BME280;50749;51.636;4.948;2023-11-21T05:48:01;101405.91;;;16.63;62.05
59190;BME280;50749;51.636;4.948;2023-11-21T05:50:26;101399.72;;;16.66;62.29
59190;BME280;50749;51.636;4.948;2023-11-21T05:52:52;101405.72;;;16.68;62.30
59190;BME280;50749;51.636;4.948;2023-11-21T05:55:18;101412.88;;;16.69;62.21
59190;BME280;50749;51.636;4.948;2023-11-21T05:57:46;101417.22;;;16.70;62.26
59190;BME280;50749;51.636;4.948;2023-11-21T06:00:14;101423.72;;;16.75;62.12
59190;BME280;50749;51.636;4.948;2023-11-21T06:02:48;101426.47;;;16.75;62.24
59190;BME280;50749;51.636;4.948;2023-11-21T06:05:17;101433.59;;;16.76;62.15
59190;BME280;50749;51.636;4.948;2023-11-21T06:07:43;101433.59;;;16.76;60.09
59190;BME280;50749;51.636;4.948;2023-11-21T06:10:11;101438.44;;;16.79;58.43
59190;BME280;50749;51.636;4.948;2023-11-21T06:12:39;101438.59;;;16.82;57.75
59190;BME280;50749;51.636;4.948;2023-11-21T06:15:06;101433.41;;;16.81;60.08
59190;BME280;50749;51.636;4.948;2023-11-21T06:17:37;101438.44;;;16.79;60.44
59190;BME280;50749;51.636;4.948;2023-11-21T06:20:06;101440.09;;;16.80;60.38
59190;BME280;50749;51.636;4.948;2023-11-21T06:22:39;101452.38;;;16.82;60.50
59190;BME280;50749;51.636;4.948;2023-11-21T06:25:06;101451.25;;;16.83;60.88
59190;BME280;50749;51.636;4.948;2023-11-21T06:27:44;101454.53;;;16.85;61.02
59190;BME280;50749;51.636;4.948;2023-11-21T06:30:10;101454.66;;;16.89;61.20
59190;BME280;50749;51.636;4.948;2023-11-21T06:32:38;101456.28;;;16.90;60.84
59190;BME280;50749;51.636;4.948;2023-11-21T06:35:04;101459.19;;;16.94;61.04
59190;BME280;50749;51.636;4.948;2023-11-21T06:37:31;101467.94;;;16.96;61.20
59190;BME280;50749;51.636;4.948;2023-11-21T06:39:57;101459.78;;;16.99;61.11
59190;BME280;50749;51.636;4.948;2023-11-21T06:42:25;101464.97;;;17.01;61.23
59190;BME280;50749;51.636;4.948;2023-11-21T06:44:50;101465.59;;;17.06;62.52
59190;BME280;50749;51.636;4.948;2023-11-21T06:47:20;101464.88;;;17.09;61.55
59190;BME280;50749;51.636;4.948;2023-11-21T06:49:46;101455.81;;;17.09;61.19
59190;BME280;50749;51.636;4.948;2023-11-21T06:52:14;101460.53;;;17.08;61.21
59190;BME280;50749;51.636;4.948;2023-11-21T06:54:39;101464.56;;;17.11;61.20
59190;BME280;50749;51.636;4.948;2023-11-21T06:57:05;101463.75;;;17.11;61.50
59190;BME280;50749;51.636;4.948;2023-11-21T06:59:31;101468.16;;;17.12;61.48
59190;BME280;50749;51.636;4.948;2023-11-21T07:01:57;101465.06;;;17.13;61.41
59190;BME280;50749;51.636;4.948;2023-11-21T07:04:23;101479.66;;;17.14;61.44
59190;BME280;50749;51.636;4.948;2023-11-21T07:06:49;101486.31;;;17.13;61.24
59190;BME280;50749;51.636;4.948;2023-11-21T07:09:15;101496.09;;;17.10;60.66
59190;BME280;50749;51.636;4.948;2023-11-21T07:11:41;101501.97;;;17.08;60.68
59190;BME280;50749;51.636;4.948;2023-11-21T07:14:07;101503.41;;;17.15;62.27
59190;BME280;50749;51.636;4.948;2023-11-21T07:16:35;101506.41;;;17.22;58.53
59190;BME280;50749;51.636;4.948;2023-11-21T07:19:03;101520.69;;;17.24;58.12
59190;BME280;50749;51.636;4.948;2023-11-21T07:21:35;101512.06;;;17.25;58.28
59190;BME280;50749;51.636;4.948;2023-11-21T07:24:04;101516.31;;;17.23;59.32
59190;BME280;50749;51.636;4.948;2023-11-21T07:26:32;101534.72;;;17.19;58.96
59190;BME280;50749;51.636;4.948;2023-11-21T07:28:59;101523.88;;;17.14;59.96
59190;BME280;50749;51.636;4.948;2023-11-21T07:31:26;101523.72;;;17.10;59.86
59190;BME280;50749;51.636;4.948;2023-11-21T07:33:52;101523.59;;;17.06;60.16
59190;BME280;50749;51.636;4.948;2023-11-21T07:36:21;101527.50;;;17.05;60.13
59190;BME280;50749;51.636;4.948;2023-11-21T07:38:47;101527.81;;;17.04;60.25
59190;BME280;50749;51.636;4.948;2023-11-21T07:41:13;101535.31;;;17.03;60.33
59190;BME280;50749;51.636;4.948;2023-11-21T07:43:41;101539.22;;;17.02;60.30
59190;BME280;50749;51.636;4.948;2023-11-21T07:46:07;101539.22;;;17.02;60.56
59190;BME280;50749;51.636;4.948;2023-11-21T07:48:34;101539.53;;;17.01;60.18
59190;BME280;50749;51.636;4.948;2023-11-21T07:51:03;101540.38;;;17.01;59.90
59190;BME280;50749;51.636;4.948;2023-11-21T07:53:32;101556.13;;;17.01;60.21
59190;BME280;50749;51.636;4.948;2023-11-21T07:56:08;101549.66;;;16.97;60.14
59190;BME280;50749;51.636;4.948;2023-11-21T07:58:35;101560.84;;;17.00;59.75
59190;BME280;50749;51.636;4.948;2023-11-21T08:01:01;101555.19;;;16.97;59.10
59190;BME280;50749;51.636;4.948;2023-11-21T08:03:28;101561.50;;;16.97;59.27
59190;BME280;50749;51.636;4.948;2023-11-21T08:05:57;101570.91;;;16.96;59.16
59190;BME280;50749;51.636;4.948;2023-11-21T08:08:23;101562.63;;;16.96;59.19
59190;BME280;50749;51.636;4.948;2023-11-21T08:10:49;101566.56;;;16.95;59.23
59190;BME280;50749;51.636;4.948;2023-11-21T08:13:22;101570.44;;;16.94;59.14
59190;BME280;50749;51.636;4.948;2023-11-21T08:15:48;101578.75;;;16.94;59.10
59190;BME280;50749;51.636;4.948;2023-11-21T08:18:14;101583.78;;;16.92;59.19
59190;BME280;50749;51.636;4.948;2023-11-21T08:20:40;101591.28;;;16.92;59.04
59190;BME280;50749;51.636;4.948;2023-11-21T08:23:06;101588.50;;;16.92;59.23
59190;BME280;50749;51.636;4.948;2023-11-21T08:25:32;101591.59;;;16.90;59.22
59190;BME280;50749;51.636;4.948;2023-11-21T08:28:00;101597.47;;;16.88;59.26
59190;BME280;50749;51.636;4.948;2023-11-21T08:30:26;101598.25;;;16.89;59.09
59190;BME280;50749;51.636;4.948;2023-11-21T08:32:55;101604.94;;;16.88;59.20
59190;BME280;50749;51.636;4.948;2023-11-21T08:35:24;101604.44;;;16.86;59.38
59190;BME280;50749;51.636;4.948;2023-11-21T08:37:53;101607.53;;;16.84;59.09
59190;BME280;50749;51.636;4.948;2023-11-21T08:40:19;101621.66;;;16.83;59.02
59190;BME280;50749;51.636;4.948;2023-11-21T08:42:47;101614.03;;;16.80;59.06
59190;BME280;50749;51.636;4.948;2023-11-21T08:45:16;101617.94;;;16.79;59.35
59190;BME280;50749;51.636;4.948;2023-11-21T08:47:43;101616.31;;;16.78;59.62
59190;BME280;50749;51.636;4.948;2023-11-21T08:50:10;101621.34;;;16.76;59.21
59190;BME280;50749;51.636;4.948;2023-11-21T08:52:40;101617.97;;;16.70;59.46
59190;BME280;50749;51.636;4.948;2023-11-21T08:55:09;101624.78;;;16.72;59.42
59190;BME280;50749;51.636;4.948;2023-11-21T08:57:42;101629.81;;;16.70;59.35
59190;BME280;50749;51.636;4.948;2023-11-21T09:00:09;101624.28;;;16.70;59.58
59190;BME280;50749;51.636;4.948;2023-11-21T09:02:41;101630.97;;;16.69;59.77
59190;BME280;50749;51.636;4.948;2023-11-21T09:05:11;101624.94;;;16.67;59.30
59190;BME280;50749;51.636;4.948;2023-11-21T09:07:38;101626.28;;;16.61;59.55
59190;BME280;50749;51.636;4.948;2023-11-21T09:10:05;101637.97;;;16.67;59.90
59190;BME280;50749;51.636;4.948;2023-11-21T09:12:33;101639.91;;;16.66;59.45
59190;BME280;50749;51.636;4.948;2023-11-21T09:15:04;101644.28;;;16.67;59.66
59190;BME280;50749;51.636;4.948;2023-11-21T09:17:31;101651.75;;;16.67;59.52
59190;BME280;50749;51.636;4.948;2023-11-21T09:19:57;101653.41;;;16.68;59.72
59190;BME280;50749;51.636;4.948;2023-11-21T09:22:23;101658.09;;;16.67;59.56
59190;BME280;50749;51.636;4.948;2023-11-21T09:24:51;101660.84;;;16.67;59.68
59190;BME280;50749;51.636;4.948;2023-11-21T09:27:16;101657.28;;;16.67;59.87
59190;BME280;50749;51.636;4.948;2023-11-21T09:29:43;101659.56;;;16.65;59.81
59190;BME280;50749;51.636;4.948;2023-11-21T09:32:09;101667.06;;;16.64;59.82
59190;BME280;50749;51.636;4.948;2023-11-21T09:34:39;101672.06;;;16.62;59.65
59190;BME280;50749;51.636;4.948;2023-11-21T09:37:05;101674.81;;;16.62;59.73
59190;BME280;50749;51.636;4.948;2023-11-21T09:39:32;101672.06;;;16.62;59.63
59190;BME280;50749;51.636;4.948;2023-11-21T09:42:08;101680.34;;;16.62;59.57
59190;BME280;50749;51.636;4.948;2023-11-21T09:47:38;101682.31;;;16.62;59.67
59190;BME280;50749;51.636;4.948;2023-11-21T09:50:05;101686.53;;;16.59;59.81
59190;BME280;50749;51.636;4.948;2023-11-21T09:52:40;101691.72;;;16.61;59.94
59190;BME280;50749;51.636;4.948;2023-11-21T09:55:11;101696.44;;;16.60;59.86
59190;BME280;50749;51.636;4.948;2023-11-21T09:57:41;101698.41;;;16.60;59.96
59190;BME280;50749;51.636;4.948;2023-11-21T10:00:08;101694.81;;;16.59;60.11
59190;BME280;50749;51.636;4.948;2023-11-21T10:02:38;101700.84;;;16.61;60.02
59190;BME280;50749;51.636;4.948;2023-11-21T10:05:04;101702.75;;;16.61;59.87
59190;BME280;50749;51.636;4.948;2023-11-21T10:07:31;101703.09;;;16.59;59.66
59190;BME280;50749;51.636;4.948;2023-11-21T10:09:59;101705.84;;;16.59;59.67
59190;BME280;50749;51.636;4.948;2023-11-21T10:12:26;101707.00;;;16.58;59.55
59190;BME280;50749;51.636;4.948;2023-11-21T10:14:54;101713.66;;;16.57;59.96
59190;BME280;50749;51.636;4.948;2023-11-21T10:17:23;101729.09;;;16.58;59.65
59190;BME280;50749;51.636;4.948;2023-11-21T10:19:52;101729.41;;;16.57;59.77
59190;BME280;50749;51.636;4.948;2023-11-21T10:22:20;101734.13;;;16.56;59.79
59190;BME280;50749;51.636;4.948;2023-11-21T10:24:46;101734.59;;;16.58;59.81
59190;BME280;50749;51.636;4.948;2023-11-21T10:27:13;101735.72;;;16.57;59.76
59190;BME280;50749;51.636;4.948;2023-11-21T10:29:39;101753.94;;;16.58;59.68
59190;BME280;50749;51.636;4.948;2023-11-21T10:32:05;101736.56;;;16.58;59.87
59190;BME280;50749;51.636;4.948;2023-11-21T10:34:31;101747.25;;;16.59;59.89
59190;BME280;50749;51.636;4.948;2023-11-21T10:36:58;101751.97;;;16.59;59.96
59190;BME280;50749;51.636;4.948;2023-11-21T10:39:25;101759.44;;;16.58;60.08
59190;BME280;50749;51.636;4.948;2023-11-21T10:41:56;101760.25;;;16.59;59.79
59190;BME280;50749;51.636;4.948;2023-11-21T10:44:22;101764.97;;;16.58;60.02
59190;BME280;50749;51.636;4.948;2023-11-21T10:46:53;101765.78;;;16.59;59.82
59190;BME280;50749;51.636;4.948;2023-11-21T10:49:25;101767.72;;;16.58;60.04
59190;BME280;50749;51.636;4.948;2023-11-21T10:51:52;101764.97;;;16.58;59.92
59190;BME280;50749;51.636;4.948;2023-11-21T10:54:20;101762.69;;;16.60;59.83
59190;BME280;50749;51.636;4.948;2023-11-21T10:56:50;101761.88;;;16.60;60.11
59190;BME280;50749;51.636;4.948;2023-11-21T10:59:19;101763.81;;;16.59;59.86
59190;BME280;50749;51.636;4.948;2023-11-21T11:01:46;101768.22;;;16.60;60.22
59190;BME280;50749;51.636;4.948;2023-11-21T11:04:15;101772.94;;;16.60;59.87
59190;BME280;50749;51.636;4.948;2023-11-21T11:06:43;101774.84;;;16.59;60.09
59190;BME280;50749;51.636;4.948;2023-11-21T11:09:12;101769.69;;;16.58;60.00
59190;BME280;50749;51.636;4.948;2023-11-21T11:11:41;101772.44;;;16.58;60.08
59190;BME280;50749;51.636;4.948;2023-11-21T11:14:13;101784.63;;;16.57;60.22
59190;BME280;50749;51.636;4.948;2023-11-21T11:16:40;101786.56;;;16.56;60.15
59190;BME280;50749;51.636;4.948;2023-11-21T11:19:07;101790.13;;;16.57;60.30
59190;BME280;50749;51.636;4.948;2023-11-21T11:24:46;101793.22;;;16.55;59.99
59190;BME280;50749;51.636;4.948;2023-11-21T11:27:35;101801.03;;;16.53;60.11
59190;BME280;50749;51.636;4.948;2023-11-21T11:32:58;101806.88;;;16.51;60.34
59190;BME280;50749;51.636;4.948;2023-11-21T11:35:37;101815.94;;;16.52;60.18
59190;BME280;50749;51.636;4.948;2023-11-21T11:38:03;101812.72;;;16.50;60.26
59190;BME280;50749;51.636;4.948;2023-11-21T11:40:45;101820.19;;;16.49;60.09
59190;BME280;50749;51.636;4.948;2023-11-21T11:43:11;101806.72;;;16.48;60.16
59190;BME280;50749;51.636;4.948;2023-11-21T11:45:38;101811.06;;;16.49;60.36
59190;BME280;50749;51.636;4.948;2023-11-21T11:48:11;101822.13;;;16.49;60.27
59190;BME280;50749;51.636;4.948;2023-11-21T11:50:59;101820.50;;;16.48;60.13
59190;BME280;50749;51.636;4.948;2023-11-21T11:53:33;101825.56;;;16.46;60.03
59190;BME280;50749;51.636;4.948;2023-11-21T11:58:47;101828.63;;;16.53;60.70
59190;BME280;50749;51.636;4.948;2023-11-21T12:01:13;101823.75;;;16.50;60.64
59190;BME280;50749;51.636;4.948;2023-11-21T12:03:39;101834.16;;;16.53;60.78
59190;BME280;50749;51.636;4.948;2023-11-21T12:06:05;101835.75;;;16.54;60.53
59190;BME280;50749;51.636;4.948;2023-11-21T12:08:32;101840.47;;;16.53;60.97
59190;BME280;50749;51.636;4.948;2023-11-21T12:10:58;101846.00;;;16.53;61.04
59190;BME280;50749;51.636;4.948;2023-11-21T12:13:24;101840.16;;;16.55;61.26
59190;BME280;50749;51.636;4.948;2023-11-21T12:15:50;101850.38;;;16.55;60.96
59190;BME280;50749;51.636;4.948;2023-11-21T12:18:16;101844.03;;;16.54;61.16
59190;BME280;50749;51.636;4.948;2023-11-21T12:20:42;101846.78;;;16.54;61.47
59190;BME280;50749;51.636;4.948;2023-11-21T12:23:12;101852.31;;;16.54;61.35
59190;BME280;50749;51.636;4.948;2023-11-21T12:25:40;101856.72;;;16.55;61.46
59190;BME280;50749;51.636;4.948;2023-11-21T12:28:06;101859.78;;;16.53;61.75
59190;BME280;50749;51.636;4.948;2023-11-21T12:30:34;101867.28;;;16.53;61.77
59190;BME280;50749;51.636;4.948;2023-11-21T12:33:04;101867.28;;;16.53;61.78
59190;BME280;50749;51.636;4.948;2023-11-21T12:35:31;101874.09;;;16.56;61.79
59190;BME280;50749;51.636;4.948;2023-11-21T12:38:01;101886.44;;;16.58;61.47
59190;BME280;50749;51.636;4.948;2023-11-21T12:40:31;101883.69;;;16.58;61.47
59190;BME280;50749;51.636;4.948;2023-11-21T12:42:58;101877.66;;;16.56;61.62
59190;BME280;50749;51.636;4.948;2023-11-21T12:45:26;101890.31;;;16.57;61.47
59190;BME280;50749;51.636;4.948;2023-11-21T12:47:56;101879.59;;;16.56;61.58
59190;BME280;50749;51.636;4.948;2023-11-21T12:50:30;101880.75;;;16.55;61.56
59190;BME280;50749;51.636;4.948;2023-11-21T12:53:12;101882.53;;;16.59;61.79
59190;BME280;50749;51.636;4.948;2023-11-21T12:55:38;101874.91;;;16.56;61.98
59190;BME280;50749;51.636;4.948;2023-11-21T12:58:08;101879.59;;;16.56;61.61
59190;BME280;50749;51.636;4.948;2023-11-21T13:00:38;101875.72;;;16.57;61.72
59190;BME280;50749;51.636;4.948;2023-11-21T13:03:05;101880.13;;;16.58;61.97